Metar Flugplatz Niederstetten

ETHN 141220Z 17004KT 9999 FEW070 SCT090 25/06 Q1015 BLU+BLU+



Temperatur Niederstetten
25 Grad Celsius

QNH Niederstetten
1015
==============================================================

TAF Niederstetten:

TAF ETHN 291027Z 2911/3002 24010KT 9999 NSW FEW240 TEMPO 2911/2916 26012G22KT 9999 NSW SCT035 BKN240



Alle Angaben ohne Gewähr